createdAt,value
2023-01-09T00:02:00.272Z,49.37
2023-01-09T00:04:28.670Z,50.00
2023-01-09T00:06:57.099Z,47.13
2023-01-09T00:09:26.443Z,51.60
2023-01-09T00:11:56.121Z,52.63
2023-01-09T00:14:25.929Z,50.70
2023-01-09T00:16:56.687Z,52.07
2023-01-09T00:19:25.306Z,47.53
2023-01-09T00:21:53.843Z,54.73
2023-01-09T00:24:22.278Z,50.87
2023-01-09T00:26:50.760Z,51.60
2023-01-09T00:29:19.149Z,56.30
2023-01-09T00:31:48.942Z,45.53
2023-01-09T00:34:17.466Z,51.10
2023-01-09T00:36:46.397Z,49.30
2023-01-09T00:39:14.784Z,45.37
2023-01-09T00:41:47.894Z,45.47
2023-01-09T00:44:19.448Z,51.60
2023-01-09T00:46:52.162Z,54.17
2023-01-09T00:49:21.276Z,59.17
2023-01-09T00:51:50.306Z,51.43
2023-01-09T00:54:21.843Z,48.60
2023-01-09T00:56:51.479Z,46.47
2023-01-09T00:59:19.888Z,48.60
2023-01-09T01:01:50.148Z,49.93
2023-01-09T01:04:36.023Z,50.50
2023-01-09T01:07:21.813Z,51.37
2023-01-09T01:09:50.194Z,48.23
2023-01-09T01:12:18.623Z,50.13
2023-01-09T01:14:47.070Z,53.67
2023-01-09T01:17:16.986Z,49.87
2023-01-09T01:19:45.419Z,50.97
2023-01-09T01:22:14.307Z,47.17
2023-01-09T01:24:42.947Z,52.60
2023-01-09T01:27:11.357Z,58.00
2023-01-09T01:29:39.847Z,51.47
2023-01-09T01:32:08.266Z,50.87
2023-01-09T01:34:38.072Z,48.97
2023-01-09T01:37:06.562Z,48.17
2023-01-09T01:39:35.034Z,47.90
2023-01-09T01:42:04.961Z,49.30
2023-01-09T01:44:59.996Z,47.63
2023-01-09T01:47:34.652Z,46.37
2023-01-09T01:50:06.779Z,49.03
2023-01-09T01:52:38.896Z,49.13
2023-01-09T01:55:09.878Z,49.77
2023-01-09T01:57:42.485Z,49.23
2023-01-09T02:00:13.582Z,51.33
2023-01-09T02:02:43.732Z,47.30
2023-01-09T02:05:14.226Z,53.27
2023-01-09T02:07:42.602Z,48.10
2023-01-09T02:10:12.069Z,49.37
2023-01-09T02:12:40.421Z,47.23
2023-01-09T02:15:12.259Z,42.30
2023-01-09T02:18:03.971Z,47.63
2023-01-09T02:20:41.180Z,50.43
2023-01-09T02:23:49.761Z,43.67
2023-01-09T02:26:47.531Z,48.40
2023-01-09T02:29:47.142Z,45.80
2023-01-09T02:32:33.304Z,48.40
2023-01-09T02:35:10.773Z,51.17
2023-01-09T02:37:46.641Z,48.33
2023-01-09T02:40:25.807Z,50.77
2023-01-09T02:42:56.935Z,47.67
2023-01-09T02:45:25.420Z,43.53
2023-01-09T02:47:55.376Z,48.03
2023-01-09T02:50:31.617Z,47.60
2023-01-09T02:53:23.375Z,48.33
2023-01-09T02:56:00.231Z,43.87
2023-01-09T02:58:47.122Z,45.13
2023-01-09T03:01:32.725Z,48.13
2023-01-09T03:04:10.911Z,47.60
2023-01-09T03:06:47.551Z,42.27
2023-01-09T03:09:20.478Z,42.03
2023-01-09T03:11:52.602Z,41.77
2023-01-09T03:14:27.449Z,42.53
2023-01-09T03:17:01.962Z,43.80
2023-01-09T03:19:33.780Z,39.93
2023-01-09T03:22:02.932Z,44.27
2023-01-09T03:24:31.444Z,43.20
2023-01-09T03:26:59.945Z,45.53
2023-01-09T03:29:29.612Z,42.30
2023-01-09T03:31:58.094Z,46.43
2023-01-09T03:34:26.738Z,43.60
2023-01-09T03:36:56.710Z,42.10
2023-01-09T03:39:25.480Z,40.70
2023-01-09T03:41:53.992Z,38.73
2023-01-09T03:44:25.045Z,42.00
2023-01-09T03:46:57.036Z,39.57
2023-01-09T03:49:25.958Z,36.17
2023-01-09T03:51:55.896Z,41.13
2023-01-09T03:54:24.372Z,38.10
2023-01-09T03:56:53.022Z,38.93
2023-01-09T03:59:21.488Z,41.17
2023-01-09T04:01:50.260Z,38.73
2023-01-09T04:04:19.097Z,37.47
2023-01-09T04:06:47.481Z,38.97
2023-01-09T04:09:17.306Z,31.33
2023-01-09T04:11:46.382Z,37.30
2023-01-09T04:14:15.398Z,37.03
2023-01-09T04:16:44.050Z,38.63
2023-01-09T04:19:12.565Z,37.13
2023-01-09T04:21:40.997Z,32.10
2023-01-09T04:24:09.873Z,33.57
2023-01-09T04:26:39.705Z,31.40
2023-01-09T04:29:08.187Z,37.63
2023-01-09T04:31:36.781Z,35.03
2023-01-09T04:34:05.237Z,31.90
2023-01-09T04:36:34.774Z,37.30
2023-01-09T04:39:03.319Z,36.10
2023-01-09T04:41:45.530Z,32.90
2023-01-09T04:44:15.449Z,36.37
2023-01-09T04:46:43.919Z,38.77
2023-01-09T04:49:12.324Z,33.53
2023-01-09T04:51:40.843Z,34.00
2023-01-09T04:54:09.390Z,36.63
2023-01-09T04:56:38.496Z,35.80
2023-01-09T04:59:08.559Z,37.40
2023-01-09T05:01:38.768Z,33.63
2023-01-09T05:04:07.766Z,34.10
2023-01-09T05:06:36.445Z,36.13
2023-01-09T05:09:05.103Z,32.43
2023-01-09T05:11:33.547Z,31.80
2023-01-09T05:14:01.976Z,34.13
2023-01-09T05:16:31.499Z,34.50
2023-01-09T05:19:01.464Z,34.30
2023-01-09T05:21:30.012Z,39.47
2023-01-09T05:23:58.421Z,31.77
2023-01-09T05:26:26.992Z,31.43
2023-01-09T05:28:56.676Z,33.47
2023-01-09T05:31:26.889Z,32.87
2023-01-09T05:33:56.025Z,31.93
2023-01-09T05:36:25.979Z,32.47
2023-01-09T05:38:54.519Z,36.37
2023-01-09T05:41:24.233Z,34.10
2023-01-09T05:43:52.741Z,32.70
2023-01-09T05:46:21.308Z,32.00
2023-01-09T05:48:49.761Z,26.90
2023-01-09T05:51:18.396Z,28.93
2023-01-09T05:53:48.259Z,28.60
2023-01-09T05:56:17.439Z,28.83
2023-01-09T05:58:46.367Z,27.53
2023-01-09T06:01:14.813Z,30.07
2023-01-09T06:03:43.313Z,31.33
2023-01-09T06:06:12.013Z,32.77
2023-01-09T06:08:40.400Z,29.67
2023-01-09T06:11:10.623Z,32.30
2023-01-09T06:13:39.139Z,34.97
2023-01-09T06:16:08.858Z,35.23
2023-01-09T06:18:37.575Z,33.00
2023-01-09T06:21:06.367Z,30.17
2023-01-09T06:23:34.876Z,29.43
2023-01-09T06:26:03.365Z,33.97
2023-01-09T06:28:33.158Z,38.07
2023-01-09T06:31:01.629Z,46.80
2023-01-09T06:33:30.189Z,62.03
2023-01-09T06:35:58.727Z,51.90
2023-01-09T06:38:27.303Z,52.80
2023-01-09T06:40:55.667Z,50.93
2023-01-09T06:43:24.204Z,46.33
2023-01-09T06:45:54.091Z,44.43
2023-01-09T06:48:22.496Z,46.47
2023-01-09T06:50:50.893Z,51.00
2023-01-09T06:53:19.431Z,51.47
2023-01-09T06:55:48.392Z,52.43
2023-01-09T06:58:17.196Z,55.80
2023-01-09T07:00:45.607Z,58.57
2023-01-09T07:03:19.914Z,63.10
2023-01-09T07:05:48.564Z,50.27
2023-01-09T07:08:17.347Z,47.13
2023-01-09T07:10:46.420Z,48.53
2023-01-09T07:13:14.929Z,48.03
2023-01-09T07:15:43.866Z,34.23
2023-01-09T07:18:16.725Z,33.67
2023-01-09T07:20:45.184Z,40.20
2023-01-09T07:23:14.116Z,39.87
2023-01-09T07:25:44.365Z,36.97
2023-01-09T07:28:12.861Z,39.00
2023-01-09T07:30:41.433Z,37.13
2023-01-09T07:33:09.925Z,33.43
2023-01-09T07:35:39.954Z,32.33
2023-01-09T07:38:08.389Z,42.17
2023-01-09T07:40:37.418Z,45.90
2023-01-09T07:43:06.178Z,42.73
2023-01-09T07:45:34.593Z,38.60
2023-01-09T07:48:05.772Z,40.50
2023-01-09T07:50:34.157Z,40.80
2023-01-09T07:53:04.180Z,35.67
2023-01-09T07:55:32.702Z,38.70
2023-01-09T07:58:01.113Z,36.97
2023-01-09T08:00:30.757Z,49.57
2023-01-09T08:03:00.832Z,38.60
2023-01-09T08:05:29.220Z,47.97
2023-01-09T08:08:00.167Z,58.47
2023-01-09T08:10:30.135Z,50.97
2023-01-09T08:12:58.520Z,50.40
2023-01-09T08:15:26.897Z,47.03
2023-01-09T08:17:55.431Z,47.67
2023-01-09T08:20:24.565Z,45.33
2023-01-09T08:22:54.497Z,47.00
2023-01-09T08:25:23.458Z,45.33
2023-01-09T08:27:54.007Z,48.63
2023-01-09T08:30:23.664Z,42.50
2023-01-09T08:32:53.198Z,41.53
2023-01-09T08:35:22.116Z,39.20
2023-01-09T08:37:50.666Z,36.30
2023-01-09T08:40:20.009Z,43.90
2023-01-09T08:43:05.624Z,38.10
2023-01-09T08:45:53.821Z,43.47
2023-01-09T08:48:22.476Z,38.93
2023-01-09T08:50:52.471Z,60.90
2023-01-09T08:53:21.029Z,55.47
2023-01-09T08:55:49.850Z,51.40
2023-01-09T08:58:18.278Z,53.13
2023-01-09T09:00:48.270Z,48.13
2023-01-09T09:03:17.616Z,58.10
2023-01-09T09:05:46.902Z,55.13
2023-01-09T09:08:16.109Z,57.40
2023-01-09T09:10:44.496Z,52.97
2023-01-09T09:13:12.949Z,57.90
2023-01-09T09:15:41.306Z,51.23
2023-01-09T09:18:11.167Z,54.17
2023-01-09T09:20:40.573Z,51.47
2023-01-09T09:23:09.558Z,52.23
2023-01-09T09:25:39.676Z,55.00
2023-01-09T09:28:08.672Z,51.97
2023-01-09T09:30:37.198Z,46.03
2023-01-09T09:33:06.546Z,48.77
2023-01-09T09:35:36.600Z,54.57
2023-01-09T09:38:06.417Z,47.17
2023-01-09T09:40:56.285Z,47.80
2023-01-09T09:44:07.899Z,47.63
2023-01-09T09:46:46.050Z,36.57
2023-01-09T09:49:19.818Z,37.20
2023-01-09T09:52:02.677Z,34.10
2023-01-09T09:54:35.850Z,30.43
2023-01-09T09:57:06.001Z,29.60
2023-01-09T09:59:38.325Z,32.23
2023-01-09T10:02:24.008Z,33.07
2023-01-09T10:04:59.391Z,28.33
2023-01-09T10:07:34.320Z,34.20
2023-01-09T10:10:07.316Z,35.00
2023-01-09T10:12:43.436Z,34.27
2023-01-09T10:15:18.069Z,37.73
2023-01-09T10:17:57.090Z,44.07
2023-01-09T10:20:50.791Z,44.13
2023-01-09T10:23:38.289Z,42.23
2023-01-09T10:26:13.343Z,44.77
2023-01-09T10:29:16.851Z,46.03
2023-01-09T10:31:57.435Z,47.77
2023-01-09T10:34:40.676Z,43.87
2023-01-09T10:37:14.739Z,42.40
2023-01-09T10:39:48.375Z,41.90
2023-01-09T10:42:23.373Z,39.67
2023-01-09T10:44:58.417Z,44.03
2023-01-09T10:47:31.501Z,38.13
2023-01-09T10:50:01.422Z,37.20
2023-01-09T10:52:36.846Z,37.93
2023-01-09T10:55:20.601Z,39.30
2023-01-09T10:57:54.414Z,33.83
2023-01-09T11:00:25.225Z,90.57
2023-01-09T11:02:54.947Z,47.63
2023-01-09T11:05:27.876Z,45.00
2023-01-09T11:08:02.543Z,47.27
2023-01-09T11:10:48.302Z,41.90
2023-01-09T11:13:21.862Z,47.07
2023-01-09T11:16:19.297Z,39.70
2023-01-09T11:18:53.262Z,35.93
2023-01-09T11:21:33.467Z,37.47
2023-01-09T11:24:29.056Z,33.83
2023-01-09T11:27:27.542Z,32.60
2023-01-09T11:30:22.751Z,33.17
2023-01-09T11:32:51.382Z,40.93
2023-01-09T11:35:23.189Z,34.90
2023-01-09T11:38:03.180Z,34.63
2023-01-09T11:40:37.194Z,38.03
2023-01-09T11:43:15.715Z,33.87
2023-01-09T11:45:59.870Z,37.23
2023-01-09T11:48:35.974Z,38.70
2023-01-09T11:51:07.241Z,33.17
2023-01-09T11:53:55.283Z,31.70
2023-01-09T11:56:24.183Z,28.60
2023-01-09T11:58:54.529Z,31.10
2023-01-09T12:02:00.008Z,28.47
2023-01-09T12:04:34.056Z,28.33
2023-01-09T12:07:18.129Z,31.53
2023-01-09T12:09:59.062Z,25.27
2023-01-09T12:12:32.527Z,22.77
2023-01-09T12:15:20.382Z,25.63
2023-01-09T12:18:07.127Z,25.70
2023-01-09T12:20:51.957Z,23.37
2023-01-09T12:23:33.250Z,23.57
2023-01-09T12:26:14.705Z,22.77
2023-01-09T12:29:31.167Z,26.97
2023-01-09T12:32:20.873Z,23.50
2023-01-09T12:35:01.345Z,20.77
2023-01-09T12:38:02.947Z,20.03
2023-01-09T12:41:06.755Z,16.17
2023-01-09T12:43:45.303Z,14.97
2023-01-09T12:46:19.475Z,15.17
2023-01-09T12:49:06.603Z,12.43
2023-01-09T12:51:43.397Z,11.83
2023-01-09T12:54:20.817Z,13.33
2023-01-09T12:56:54.365Z,11.97
2023-01-09T12:59:31.196Z,11.60
2023-01-09T13:02:08.029Z,12.17
2023-01-09T13:04:45.666Z,9.73
2023-01-09T13:07:20.397Z,9.93
2023-01-09T13:09:54.144Z,9.67
2023-01-09T13:12:26.245Z,20.03
2023-01-09T13:15:01.507Z,15.40
2023-01-09T13:17:37.834Z,15.13
2023-01-09T13:20:21.439Z,12.73
2023-01-09T13:22:54.052Z,12.00
2023-01-09T13:25:37.616Z,139.30
2023-01-09T13:28:14.945Z,38.90
2023-01-09T13:30:59.775Z,47.40
2023-01-09T13:33:31.323Z,96.07
2023-01-09T13:36:03.955Z,78.27
2023-01-09T13:38:34.382Z,195.53
2023-01-09T13:41:23.269Z,197.43
2023-01-09T13:43:57.488Z,394.40
2023-01-09T13:46:38.371Z,127.73
2023-01-09T13:49:09.005Z,36.17
2023-01-09T13:52:01.227Z,38.30
2023-01-09T13:55:07.005Z,30.97
2023-01-09T13:57:37.231Z,35.17
2023-01-09T14:00:43.216Z,39.90
2023-01-09T14:03:20.930Z,18.93
2023-01-09T14:06:22.807Z,17.13
2023-01-09T14:09:13.375Z,14.20
2023-01-09T14:11:42.246Z,17.63
2023-01-09T14:14:27.535Z,14.07
2023-01-09T14:16:56.688Z,13.87
2023-01-09T14:19:35.654Z,11.83
2023-01-09T14:22:05.114Z,12.23
2023-01-09T14:24:42.781Z,9.27
2023-01-09T14:27:44.197Z,11.97
2023-01-09T14:30:29.423Z,19.27
2023-01-09T14:32:59.358Z,27.30
2023-01-09T14:35:35.446Z,11.57
2023-01-09T14:38:12.135Z,12.13
2023-01-09T14:40:49.001Z,13.80
2023-01-09T14:43:27.964Z,12.43
2023-01-09T14:46:05.117Z,15.10
2023-01-09T14:48:35.645Z,13.27
2023-01-09T14:51:08.634Z,12.37
2023-01-09T14:53:39.795Z,12.60
2023-01-09T14:56:29.356Z,14.37
2023-01-09T14:59:14.467Z,11.60
2023-01-09T15:01:46.285Z,16.50
2023-01-09T15:04:27.097Z,14.80
2023-01-09T15:06:55.742Z,12.90
2023-01-09T15:09:27.940Z,12.03
2023-01-09T15:12:02.543Z,12.10
2023-01-09T15:14:36.230Z,130.63
2023-01-09T15:17:05.637Z,69.63
2023-01-09T15:19:35.046Z,25.67
2023-01-09T15:22:06.557Z,13.30
2023-01-09T15:24:35.913Z,11.80
2023-01-09T15:27:15.529Z,11.77
2023-01-09T15:29:44.540Z,10.10
2023-01-09T15:32:18.975Z,12.33
2023-01-09T15:34:47.981Z,10.33
2023-01-09T15:37:27.011Z,8.47
2023-01-09T15:39:56.211Z,10.23
2023-01-09T15:42:45.761Z,6.97
2023-01-09T15:45:32.722Z,7.40
2023-01-09T15:48:17.246Z,5.70
2023-01-09T15:50:46.684Z,7.07
2023-01-09T15:53:17.578Z,5.20
2023-01-09T15:55:46.897Z,6.77
2023-01-09T15:58:30.455Z,5.63
2023-01-09T16:01:01.561Z,6.60
2023-01-09T16:03:30.957Z,6.17
2023-01-09T16:06:05.801Z,5.63
2023-01-09T16:08:37.189Z,7.53
2023-01-09T16:11:08.708Z,5.60
2023-01-09T16:13:45.701Z,7.00
2023-01-09T16:16:15.419Z,5.90
2023-01-09T16:18:52.368Z,6.27
2023-01-09T16:21:35.710Z,5.67
2023-01-09T16:24:22.613Z,7.50
2023-01-09T16:26:54.178Z,6.23
2023-01-09T16:29:36.921Z,6.43
2023-01-09T16:32:07.646Z,6.40
2023-01-09T16:34:37.397Z,6.10
2023-01-09T16:37:07.169Z,5.73
2023-01-09T16:39:36.158Z,5.43
2023-01-09T16:42:27.473Z,6.60
2023-01-09T16:44:57.525Z,6.23
2023-01-09T16:47:27.164Z,6.67
2023-01-09T16:49:55.973Z,7.07
2023-01-09T16:52:24.475Z,5.47
2023-01-09T16:54:53.261Z,6.80
2023-01-09T16:57:22.251Z,7.13
2023-01-09T16:59:50.986Z,8.03
2023-01-09T17:02:22.384Z,8.03
2023-01-09T17:04:51.038Z,10.07
2023-01-09T17:07:21.227Z,9.67
2023-01-09T17:09:49.906Z,8.77
2023-01-09T17:12:20.439Z,9.57
2023-01-09T17:14:49.316Z,10.90
2023-01-09T17:17:18.647Z,11.73
2023-01-09T17:19:48.718Z,10.57
2023-01-09T17:22:17.462Z,11.87
2023-01-09T17:25:03.081Z,10.23
2023-01-09T17:27:52.109Z,11.67
2023-01-09T17:30:21.232Z,9.53
2023-01-09T17:32:50.295Z,10.83
2023-01-09T17:35:20.720Z,9.70
2023-01-09T17:37:49.116Z,13.33
2023-01-09T17:40:20.572Z,16.53
2023-01-09T17:42:49.059Z,17.27
2023-01-09T17:45:17.674Z,18.03
2023-01-09T17:47:46.132Z,11.33
2023-01-09T17:50:21.369Z,12.27
2023-01-09T17:52:51.188Z,16.67
2023-01-09T17:55:19.891Z,13.20
2023-01-09T17:57:48.287Z,19.17
2023-01-09T18:00:26.740Z,19.83
2023-01-09T18:02:55.765Z,16.73
2023-01-09T18:05:27.799Z,16.63
2023-01-09T18:07:56.540Z,15.00
2023-01-09T18:10:27.346Z,16.60
2023-01-09T18:12:57.350Z,16.80
2023-01-09T18:15:25.831Z,16.67
2023-01-09T18:17:54.223Z,14.83
2023-01-09T18:20:22.658Z,16.27
2023-01-09T18:22:52.929Z,15.13
2023-01-09T18:25:21.387Z,14.53
2023-01-09T18:27:49.840Z,16.57
2023-01-09T18:30:18.549Z,16.87
2023-01-09T18:32:47.026Z,16.23
2023-01-09T18:35:15.810Z,15.47
2023-01-09T18:37:44.313Z,17.83
2023-01-09T18:40:14.834Z,15.27
2023-01-09T18:42:45.217Z,17.13
2023-01-09T18:45:14.024Z,18.97
2023-01-09T18:47:42.457Z,15.17
2023-01-09T18:50:12.540Z,15.60
2023-01-09T18:52:40.950Z,15.97
2023-01-09T18:55:10.320Z,26.53
2023-01-09T18:57:40.182Z,26.97
2023-01-09T19:00:11.746Z,28.20
2023-01-09T19:02:40.466Z,23.17
2023-01-09T19:05:09.431Z,25.70
2023-01-09T19:07:37.869Z,25.47
2023-01-09T19:10:10.114Z,23.63
2023-01-09T19:12:40.207Z,22.47
2023-01-09T19:15:11.726Z,22.73
2023-01-09T19:17:40.527Z,21.90
2023-01-09T19:20:10.503Z,23.20
2023-01-09T19:22:38.903Z,21.00
2023-01-09T19:25:09.017Z,20.80
2023-01-09T19:27:37.600Z,22.17
2023-01-09T19:30:09.864Z,20.33
2023-01-09T19:32:38.582Z,18.70
2023-01-09T19:35:07.667Z,20.03
2023-01-09T19:37:37.563Z,16.37
2023-01-09T19:40:06.841Z,19.87
2023-01-09T19:42:35.277Z,23.57
2023-01-09T19:45:03.786Z,21.63
2023-01-09T19:47:37.011Z,18.20
2023-01-09T19:50:06.388Z,16.87
2023-01-09T19:52:34.984Z,15.60
2023-01-09T19:55:03.358Z,18.33
2023-01-09T19:57:31.988Z,18.90
2023-01-09T20:00:00.439Z,16.23
2023-01-09T20:02:28.926Z,19.87
2023-01-09T20:04:58.910Z,19.57
2023-01-09T20:07:27.314Z,25.23
2023-01-09T20:09:56.289Z,88.03
2023-01-09T20:12:24.676Z,106.33
2023-01-09T20:14:53.052Z,95.33
2023-01-09T20:17:21.540Z,71.83
2023-01-09T20:19:49.962Z,56.00
2023-01-09T20:22:19.783Z,35.03
2023-01-09T20:24:48.174Z,27.83
2023-01-09T20:27:16.702Z,26.83
2023-01-09T20:29:45.782Z,27.70
2023-01-09T20:32:14.449Z,26.03
2023-01-09T20:34:44.039Z,30.03
2023-01-09T20:37:12.600Z,25.60
2023-01-09T20:39:42.472Z,29.17
2023-01-09T20:42:12.494Z,29.67
2023-01-09T20:44:40.918Z,28.97
2023-01-09T20:47:09.529Z,29.43
2023-01-09T20:49:37.992Z,24.00
2023-01-09T20:52:06.664Z,27.33
2023-01-09T20:54:36.066Z,27.57
2023-01-09T20:57:06.041Z,28.63
2023-01-09T20:59:34.801Z,26.13
2023-01-09T21:02:03.505Z,24.83
2023-01-09T21:04:32.490Z,24.53
2023-01-09T21:07:01.501Z,25.30
2023-01-09T21:09:29.934Z,27.50
2023-01-09T21:11:58.419Z,28.00
2023-01-09T21:14:29.017Z,26.70
2023-01-09T21:16:57.510Z,27.37
2023-01-09T21:19:25.965Z,25.63
2023-01-09T21:21:54.429Z,25.00
2023-01-09T21:24:23.281Z,23.13
2023-01-09T21:26:51.856Z,20.00
2023-01-09T21:29:20.427Z,23.30
2023-01-09T21:31:50.602Z,21.30
2023-01-09T21:34:20.955Z,25.00
2023-01-09T21:36:50.057Z,23.53
2023-01-09T21:39:19.982Z,25.27
2023-01-09T21:42:06.088Z,26.33
2023-01-09T21:44:51.664Z,26.30
2023-01-09T21:47:21.553Z,23.87
2023-01-09T21:49:50.224Z,24.47
2023-01-09T21:52:19.687Z,22.87
2023-01-09T21:54:48.132Z,24.23
2023-01-09T21:57:16.987Z,26.63
2023-01-09T21:59:45.457Z,22.27
2023-01-09T22:02:16.045Z,20.83
2023-01-09T22:04:49.257Z,31.40
2023-01-09T22:07:18.651Z,24.43
2023-01-09T22:09:47.349Z,24.60
2023-01-09T22:12:15.772Z,23.40
2023-01-09T22:14:44.420Z,25.03
2023-01-09T22:17:12.991Z,23.17
2023-01-09T22:19:41.402Z,23.10
2023-01-09T22:22:13.658Z,22.97
2023-01-09T22:24:42.060Z,22.10
2023-01-09T22:27:10.427Z,25.47
2023-01-09T22:29:38.782Z,24.70
2023-01-09T22:32:07.311Z,23.73
2023-01-09T22:34:35.688Z,25.17
2023-01-09T22:37:04.414Z,23.37
2023-01-09T22:39:34.239Z,23.97
2023-01-09T22:42:02.824Z,25.80
2023-01-09T22:44:31.319Z,24.47
2023-01-09T22:47:00.655Z,26.10
2023-01-09T22:49:33.504Z,194.47
2023-01-09T22:52:09.779Z,229.00
2023-01-09T22:54:39.716Z,302.73
2023-01-09T22:57:08.083Z,222.67
2023-01-09T22:59:36.676Z,290.27
2023-01-09T23:02:05.312Z,97.50
2023-01-09T23:04:33.791Z,512.43
2023-01-09T23:07:02.546Z,579.93
2023-01-09T23:09:30.895Z,484.90
2023-01-09T23:12:03.390Z,122.93
2023-01-09T23:14:33.417Z,206.20
2023-01-09T23:17:01.826Z,444.10
2023-01-09T23:19:30.920Z,217.70
2023-01-09T23:21:59.853Z,64.47
2023-01-09T23:24:29.670Z,30.60
2023-01-09T23:26:58.736Z,29.17
2023-01-09T23:29:28.755Z,25.63
2023-01-09T23:31:57.249Z,437.97
2023-01-09T23:34:27.760Z,859.83
2023-01-09T23:36:57.767Z,838.17
2023-01-09T23:39:26.821Z,326.10
2023-01-09T23:42:12.303Z,292.10
2023-01-09T23:44:42.150Z,103.27
2023-01-09T23:47:12.005Z,38.90
2023-01-09T23:49:40.592Z,35.00
2023-01-09T23:52:12.001Z,30.30
2023-01-09T23:54:40.454Z,27.07
2023-01-09T23:57:08.920Z,30.87
2023-01-09T23:59:37.342Z,26.37
